Alpena County Regional Airport
KAPN : now visible

Airfield :











YOU CAN JOIN US ON...

 
LOGIN :

Register | Disclaimer

   EN    FR    IT 

 









Legend :    VFR   Marginal VFR   IFR   Intensive IFR   Very Intensive IFR
Visi :
Ceiling :
>= 8 km
>= 3000ft
5 to 8 km
1000 to 3000 ft
1500m to 5 km
500 to 1000 ft
800 to 1500m
200 to 500 ft
< 800m
< 200 ft
Symbols :   Thunderstorms  Fog  Heavy snow  Heavy precipitations  Wind > 20 kt







- Airport Elevation : 690 ft
- IATA code : APN


KAPN - Alpena County Regional

CURRENT METAR :
  • 191454Z 23005KT 10SM CLR 28/22 A2973 RMK AO2 SLP062 60000 T02780222 58011

EXPIRED METARs :
  • 191354Z 22003KT 10SM SCT120 24/22 A2977 RMK AO2 RAE04 SLP075 P0000 T02440222
  • 191254Z 19005KT 7SM -RA SCT110 23/22 A2977 RMK AO2 RAB47 SLP077 P0000 T02330222

TAF KAPN
Valid from the 19 at 12:00 until the 20 at 12:00 UTC


191152Z 1912/2012 24005KT P6SM VCSH BKN100 BKN200
FM191800 27005KT P6SM FEW050 SCT100
FM192000 33005KT P6SM FEW050 SCT150
FM192300 VRB04KT P6SM FEW050 SCT200
FM200500 VRB04KT P6SM BKN150
FM201000 VRB03KT P6SM BKN060 OVC100
KZMP FIR / North America



MET'MAP, your aeronautical weather chart ! - Copyright ORBIFLY December 2007 - Disclaimer

ORBIFLY MET'MAP TEAM :

Programming & Development : Alexandra Zaïnal
Concept & Development : Baudouin d'Aumeries
Co-Development & Prog : Marc-Olivier Méhu
Technical & hardware support : Manuel Goepfert

Contact : metmap@orbifly.com




SOURCES & CREDITS :

   NOAA       Earth
Advisory